createdAt,value
2023-01-21T00:01:14.467Z,9.18
2023-01-21T00:03:42.949Z,7.25
2023-01-21T00:06:10.917Z,8.75
2023-01-21T00:08:38.456Z,9.20
2023-01-21T00:11:16.130Z,10.30
2023-01-21T00:13:44.554Z,9.82
2023-01-21T00:16:12.887Z,8.05
2023-01-21T00:18:41.376Z,8.45
2023-01-21T00:21:09.128Z,9.15
2023-01-21T00:23:36.640Z,8.27
2023-01-21T00:26:06.440Z,9.43
2023-01-21T00:28:35.691Z,9.23
2023-01-21T00:31:05.950Z,7.90
2023-01-21T00:33:34.316Z,8.43
2023-01-21T00:36:11.880Z,8.88
2023-01-21T00:38:40.372Z,8.70
2023-01-21T00:41:12.601Z,8.25
2023-01-21T00:43:41.900Z,9.35
2023-01-21T00:46:10.141Z,6.78
2023-01-21T00:48:38.179Z,6.93
2023-01-21T00:51:05.973Z,7.38
2023-01-21T00:53:36.806Z,7.63
2023-01-21T00:56:06.614Z,7.57
2023-01-21T00:58:34.480Z,7.10
2023-01-21T01:01:11.206Z,8.63
2023-01-21T01:03:39.775Z,7.22
2023-01-21T01:06:10.431Z,6.82
2023-01-21T01:08:38.162Z,7.30
2023-01-21T01:11:05.833Z,8.13
2023-01-21T01:13:34.915Z,7.28
2023-01-21T01:16:02.827Z,7.72
2023-01-21T01:18:33.561Z,7.15
2023-01-21T01:21:01.656Z,7.32
2023-01-21T01:23:29.643Z,6.50
2023-01-21T01:26:02.841Z,7.85
2023-01-21T01:28:31.466Z,6.97
2023-01-21T01:30:59.442Z,7.45
2023-01-21T01:33:27.351Z,6.13
2023-01-21T01:35:54.740Z,5.97
2023-01-21T01:38:23.161Z,8.30
2023-01-21T01:40:52.452Z,7.70
2023-01-21T01:43:26.420Z,6.38
2023-01-21T01:45:54.839Z,5.28
2023-01-21T01:48:32.420Z,6.05
2023-01-21T01:51:04.036Z,6.53
2023-01-21T01:53:32.264Z,6.05
2023-01-21T01:56:00.376Z,6.47
2023-01-21T01:58:30.299Z,6.10
2023-01-21T02:00:59.086Z,7.68
2023-01-21T02:03:45.743Z,6.43
2023-01-21T02:06:16.678Z,6.18
2023-01-21T02:08:47.157Z,6.38
2023-01-21T02:11:17.388Z,8.15
2023-01-21T02:13:48.530Z,5.93
2023-01-21T02:16:48.854Z,5.95
2023-01-21T02:19:37.813Z,5.97
2023-01-21T02:22:39.457Z,6.57
2023-01-21T02:25:44.846Z,5.50
2023-01-21T02:28:32.308Z,6.22
2023-01-21T02:31:18.526Z,4.68
2023-01-21T02:33:54.201Z,5.40
2023-01-21T02:36:46.923Z,5.22
2023-01-21T02:39:48.283Z,4.80
2023-01-21T02:42:37.132Z,5.45
2023-01-21T02:45:26.221Z,5.78
2023-01-21T02:48:20.935Z,6.43
2023-01-21T02:50:53.622Z,4.93
2023-01-21T02:53:24.529Z,5.35
2023-01-21T02:55:53.221Z,5.32
2023-01-21T02:58:28.031Z,5.75
2023-01-21T03:01:24.695Z,5.22
2023-01-21T03:04:04.163Z,5.40
2023-01-21T03:06:46.076Z,5.85
2023-01-21T03:09:26.040Z,5.55
2023-01-21T03:12:30.291Z,5.05
2023-01-21T03:15:31.119Z,5.20
2023-01-21T03:18:18.468Z,4.50
2023-01-21T03:21:08.927Z,5.95
2023-01-21T03:23:40.354Z,4.38
2023-01-21T03:26:10.801Z,4.45
2023-01-21T03:28:44.729Z,5.15
2023-01-21T03:31:21.404Z,5.10
2023-01-21T03:33:53.119Z,4.60
2023-01-21T03:36:26.365Z,3.90
2023-01-21T03:38:57.260Z,4.00
2023-01-21T03:41:34.019Z,5.05
2023-01-21T03:44:01.378Z,4.72
2023-01-21T03:46:55.989Z,4.90
2023-01-21T03:49:31.927Z,5.07
2023-01-21T03:52:01.681Z,4.63
2023-01-21T03:54:29.013Z,3.92
2023-01-21T03:56:56.605Z,4.68
2023-01-21T03:59:23.889Z,3.90
2023-01-21T04:01:52.033Z,4.75
2023-01-21T04:04:19.373Z,3.88
2023-01-21T04:06:46.943Z,5.03
2023-01-21T04:09:14.227Z,5.13
2023-01-21T04:11:41.823Z,3.83
2023-01-21T04:14:09.345Z,4.13
2023-01-21T04:16:36.938Z,4.25
2023-01-21T04:19:05.228Z,4.10
2023-01-21T04:21:32.786Z,4.68
2023-01-21T04:24:00.115Z,4.05
2023-01-21T04:26:27.722Z,3.85
2023-01-21T04:28:54.976Z,4.00
2023-01-21T04:31:22.520Z,3.97
2023-01-21T04:33:49.806Z,3.85
2023-01-21T04:36:17.654Z,4.25
2023-01-21T04:38:44.908Z,4.85
2023-01-21T04:41:12.405Z,4.00
2023-01-21T04:43:39.713Z,3.35
2023-01-21T04:46:07.262Z,4.07
2023-01-21T04:48:34.588Z,3.53
2023-01-21T04:51:02.341Z,4.22
2023-01-21T04:53:29.665Z,4.53
2023-01-21T04:55:57.278Z,4.22
2023-01-21T04:58:24.550Z,4.65
2023-01-21T05:00:54.227Z,4.53
2023-01-21T05:03:21.563Z,5.78
2023-01-21T05:05:49.164Z,3.92
2023-01-21T05:08:16.465Z,4.55
2023-01-21T05:10:44.003Z,3.90
2023-01-21T05:13:11.315Z,3.28
2023-01-21T05:15:39.088Z,3.38
2023-01-21T05:18:06.391Z,3.30
2023-01-21T05:20:33.920Z,3.72
2023-01-21T05:23:01.193Z,4.03
2023-01-21T05:25:28.757Z,4.10
2023-01-21T05:27:56.299Z,2.90
2023-01-21T05:30:23.792Z,3.15
2023-01-21T05:32:55.005Z,3.97
2023-01-21T05:35:24.329Z,3.80
2023-01-21T05:37:51.772Z,3.95
2023-01-21T05:40:19.769Z,3.33
2023-01-21T05:42:47.532Z,4.60
2023-01-21T05:45:15.273Z,3.22
2023-01-21T05:47:42.937Z,4.65
2023-01-21T05:50:11.223Z,3.65
2023-01-21T05:52:38.933Z,3.65
2023-01-21T05:55:07.000Z,3.30
2023-01-21T05:57:34.792Z,3.40
2023-01-21T06:00:02.367Z,3.20
2023-01-21T06:02:29.656Z,4.20
2023-01-21T06:04:57.513Z,2.88
2023-01-21T06:07:24.943Z,4.20
2023-01-21T06:09:52.502Z,3.70
2023-01-21T06:12:19.753Z,2.90
2023-01-21T06:14:47.258Z,2.83
2023-01-21T06:17:14.520Z,3.33
2023-01-21T06:19:42.077Z,3.33
2023-01-21T06:22:14.673Z,3.15
2023-01-21T06:24:42.266Z,3.50
2023-01-21T06:27:09.818Z,3.85
2023-01-21T06:29:37.337Z,3.42
2023-01-21T06:32:05.102Z,3.28
2023-01-21T06:34:32.779Z,3.30
2023-01-21T06:37:00.632Z,3.13
2023-01-21T06:39:28.206Z,4.47
2023-01-21T06:41:55.603Z,5.25
2023-01-21T06:44:23.485Z,2.72
2023-01-21T06:47:00.709Z,5.63
2023-01-21T06:49:28.942Z,4.00
2023-01-21T06:51:56.450Z,2.80
2023-01-21T06:54:24.016Z,3.65
2023-01-21T06:56:51.363Z,2.90
2023-01-21T06:59:18.919Z,2.97
2023-01-21T07:01:46.536Z,3.05
2023-01-21T07:04:14.983Z,4.20
2023-01-21T07:06:42.334Z,5.00
2023-01-21T07:09:09.894Z,5.47
2023-01-21T07:11:37.145Z,4.75
2023-01-21T07:14:04.836Z,6.00
2023-01-21T07:16:32.348Z,4.63
2023-01-21T07:18:59.982Z,7.38
2023-01-21T07:21:27.792Z,5.80
2023-01-21T07:23:55.928Z,7.15
2023-01-21T07:26:23.327Z,7.38
2023-01-21T07:28:50.870Z,7.10
2023-01-21T07:31:18.288Z,7.45
2023-01-21T07:33:45.843Z,11.32
2023-01-21T07:36:14.105Z,13.85
2023-01-21T07:38:41.700Z,20.30
2023-01-21T07:41:09.059Z,17.92
2023-01-21T07:43:36.575Z,21.88
2023-01-21T07:46:03.896Z,17.42
2023-01-21T07:48:31.438Z,10.73
2023-01-21T07:50:59.767Z,12.55
2023-01-21T07:53:27.583Z,20.27
2023-01-21T07:55:54.895Z,19.63
2023-01-21T07:58:22.534Z,17.52
2023-01-21T08:00:49.940Z,18.67
2023-01-21T08:03:20.009Z,21.90
2023-01-21T08:05:47.293Z,21.35
2023-01-21T08:08:14.793Z,19.02
2023-01-21T08:10:42.091Z,27.52
2023-01-21T08:13:10.401Z,21.95
2023-01-21T08:15:37.924Z,22.48
2023-01-21T08:18:05.732Z,20.30
2023-01-21T08:20:33.011Z,18.10
2023-01-21T08:23:01.368Z,23.85
2023-01-21T08:25:28.683Z,20.05
2023-01-21T08:28:00.038Z,18.58
2023-01-21T08:30:28.189Z,17.50
2023-01-21T08:32:55.745Z,24.67
2023-01-21T08:35:23.209Z,18.05
2023-01-21T08:37:50.818Z,24.25
2023-01-21T08:40:18.194Z,17.70
2023-01-21T08:42:45.784Z,12.55
2023-01-21T08:45:15.455Z,22.67
2023-01-21T08:47:43.150Z,17.23
2023-01-21T08:50:10.937Z,17.00
2023-01-21T08:52:39.048Z,20.70
2023-01-21T08:55:06.666Z,14.80
2023-01-21T08:57:34.333Z,17.67
2023-01-21T09:00:01.792Z,15.57
2023-01-21T09:02:29.559Z,12.93
2023-01-21T09:04:57.120Z,17.58
2023-01-21T09:07:24.694Z,13.50
2023-01-21T09:09:52.046Z,15.60
2023-01-21T09:12:19.657Z,13.85
2023-01-21T09:14:47.174Z,19.77
2023-01-21T09:17:14.807Z,16.00
2023-01-21T09:19:42.201Z,13.68
2023-01-21T09:22:09.913Z,15.82
2023-01-21T09:24:37.360Z,9.07
2023-01-21T09:27:06.894Z,13.27
2023-01-21T09:29:35.075Z,16.25
2023-01-21T09:32:03.035Z,12.90
2023-01-21T09:34:30.943Z,9.90
2023-01-21T09:36:58.678Z,16.55
2023-01-21T09:39:26.016Z,13.02
2023-01-21T09:41:56.176Z,11.63
2023-01-21T09:44:57.130Z,9.90
2023-01-21T09:47:29.447Z,15.05
2023-01-21T09:50:11.273Z,10.35
2023-01-21T09:52:44.493Z,8.73
2023-01-21T09:55:23.645Z,9.05
2023-01-21T09:57:51.827Z,8.57
2023-01-21T10:00:19.296Z,11.20
2023-01-21T10:02:58.982Z,13.68
2023-01-21T10:05:57.217Z,22.73
2023-01-21T10:08:37.295Z,20.85
2023-01-21T10:11:26.607Z,22.08
2023-01-21T10:14:00.543Z,17.92
2023-01-21T10:17:01.952Z,19.77
2023-01-21T10:20:01.880Z,16.00
2023-01-21T10:22:29.589Z,18.63
2023-01-21T10:25:03.021Z,16.70
2023-01-21T10:27:35.413Z,15.05
2023-01-21T10:30:20.204Z,18.63
2023-01-21T10:32:52.033Z,14.98
2023-01-21T10:35:31.805Z,17.95
2023-01-21T10:38:16.269Z,14.52
2023-01-21T10:40:58.441Z,16.35
2023-01-21T10:43:49.495Z,14.15
2023-01-21T10:46:26.122Z,16.83
2023-01-21T10:49:10.428Z,13.48
2023-01-21T10:51:54.035Z,15.82
2023-01-21T10:54:59.431Z,16.10
2023-01-21T10:57:44.858Z,12.82
2023-01-21T11:00:26.932Z,14.80
2023-01-21T11:02:59.982Z,12.88
2023-01-21T11:05:28.397Z,13.48
2023-01-21T11:07:57.669Z,13.45
2023-01-21T11:10:26.848Z,13.15
2023-01-21T11:12:56.053Z,11.52
2023-01-21T11:15:24.382Z,14.35
2023-01-21T11:17:56.338Z,12.75
2023-01-21T11:20:33.811Z,9.88
2023-01-21T11:23:06.261Z,13.10
2023-01-21T11:25:38.280Z,10.90
2023-01-21T11:28:20.623Z,9.18
2023-01-21T11:30:51.377Z,15.48
2023-01-21T11:33:27.164Z,14.32
2023-01-21T11:35:55.447Z,9.07
2023-01-21T11:38:29.732Z,10.88
2023-01-21T11:41:06.825Z,11.43
2023-01-21T11:43:50.237Z,9.95
2023-01-21T11:46:29.938Z,9.05
2023-01-21T11:49:19.041Z,12.13
2023-01-21T11:51:47.158Z,11.63
2023-01-21T11:54:37.442Z,11.70
2023-01-21T11:57:05.266Z,8.80
2023-01-21T11:59:35.820Z,9.30
2023-01-21T12:02:23.240Z,12.65
2023-01-21T12:05:15.790Z,9.80
2023-01-21T12:07:43.335Z,11.82
2023-01-21T12:10:13.765Z,12.40
2023-01-21T12:13:00.876Z,12.20
2023-01-21T12:15:43.335Z,11.15
2023-01-21T12:18:26.066Z,12.00
2023-01-21T12:21:05.321Z,7.57
2023-01-21T12:23:46.696Z,10.27
2023-01-21T12:26:20.073Z,8.38
2023-01-21T12:28:57.985Z,9.93
2023-01-21T12:31:33.879Z,12.02
2023-01-21T12:34:10.673Z,8.00
2023-01-21T12:36:48.342Z,10.30
2023-01-21T12:39:21.210Z,10.65
2023-01-21T12:42:23.693Z,10.52
2023-01-21T12:44:55.445Z,9.63
2023-01-21T12:47:36.363Z,9.52
2023-01-21T12:50:10.986Z,8.25
2023-01-21T12:52:49.719Z,13.40
2023-01-21T12:56:11.192Z,12.77
2023-01-21T12:59:04.601Z,8.32
2023-01-21T13:01:57.587Z,9.52
2023-01-21T13:04:57.906Z,8.23
2023-01-21T13:07:34.218Z,9.52
2023-01-21T13:10:23.965Z,7.30
2023-01-21T13:12:58.259Z,9.18
2023-01-21T13:15:33.349Z,10.27
2023-01-21T13:18:14.946Z,8.48
2023-01-21T13:20:53.866Z,8.10
2023-01-21T13:23:44.076Z,10.85
2023-01-21T13:26:27.225Z,9.15
2023-01-21T13:29:02.950Z,8.05
2023-01-21T13:31:52.564Z,8.93
2023-01-21T13:34:32.343Z,9.95
2023-01-21T13:37:16.290Z,8.55
2023-01-21T13:39:53.510Z,9.88
2023-01-21T13:42:40.810Z,7.70
2023-01-21T14:33:08.781Z,7.45
2023-01-21T14:35:50.834Z,7.78
2023-01-21T14:38:32.043Z,10.85
2023-01-21T14:41:06.160Z,8.35
2023-01-21T14:43:33.663Z,8.55
2023-01-21T14:46:01.439Z,13.73
2023-01-21T14:48:31.759Z,14.80
2023-01-21T14:51:05.742Z,7.32
2023-01-21T14:53:51.799Z,10.68
2023-01-21T14:56:29.105Z,8.25
2023-01-21T14:59:00.007Z,11.93
2023-01-21T15:01:29.763Z,8.23
2023-01-21T15:03:58.479Z,8.35
2023-01-21T15:06:26.909Z,7.57
2023-01-21T15:09:00.347Z,8.88
2023-01-21T15:11:34.395Z,7.85
2023-01-21T15:14:11.051Z,11.10
2023-01-21T15:16:41.741Z,7.97
2023-01-21T15:19:12.591Z,8.18
2023-01-21T15:21:40.701Z,10.23
2023-01-21T15:24:33.128Z,10.02
2023-01-21T15:27:04.047Z,9.00
2023-01-21T15:29:36.907Z,10.43
2023-01-21T15:32:38.768Z,11.15
2023-01-21T15:35:49.838Z,9.95
2023-01-21T15:38:19.522Z,10.98
2023-01-21T15:40:50.105Z,9.15
2023-01-21T15:43:18.360Z,8.70
2023-01-21T15:46:07.483Z,7.43
2023-01-21T15:48:45.467Z,9.85
2023-01-21T15:51:29.651Z,9.65
2023-01-21T15:54:13.252Z,11.32
2023-01-21T15:56:57.003Z,9.77
2023-01-21T15:59:46.007Z,9.80
2023-01-21T16:02:21.860Z,9.57
2023-01-21T16:05:01.682Z,15.70
2023-01-21T16:07:54.179Z,11.80
2023-01-21T16:10:49.562Z,11.40
2023-01-21T16:13:35.817Z,15.07
2023-01-21T16:16:17.507Z,10.85
2023-01-21T16:19:00.688Z,12.77
2023-01-21T16:21:34.555Z,11.63
2023-01-21T16:24:14.529Z,11.18
2023-01-21T16:26:43.648Z,15.77
2023-01-21T16:29:15.212Z,14.93
2023-01-21T16:31:50.482Z,15.27
2023-01-21T16:36:51.815Z,11.05
2023-01-21T16:39:19.658Z,12.98
2023-01-21T16:42:01.199Z,15.73
2023-01-21T16:44:29.182Z,11.02
2023-01-21T16:46:57.650Z,15.23
2023-01-21T16:49:25.740Z,10.43
2023-01-21T16:51:57.966Z,16.05
2023-01-21T16:54:29.114Z,15.05
2023-01-21T16:57:13.246Z,14.23
2023-01-21T16:59:43.242Z,12.27
2023-01-21T17:02:25.410Z,15.73
2023-01-21T17:05:00.850Z,12.93
2023-01-21T17:07:48.071Z,16.10
2023-01-21T17:10:15.710Z,12.20
2023-01-21T17:12:58.630Z,13.20
2023-01-21T17:15:29.706Z,14.82
2023-01-21T17:18:00.254Z,16.17
2023-01-21T17:20:54.107Z,10.60
2023-01-21T17:23:26.033Z,16.25
2023-01-21T17:26:39.715Z,18.35
2023-01-21T17:29:19.026Z,13.60
2023-01-21T17:31:55.359Z,14.23
2023-01-21T17:34:25.751Z,13.25
2023-01-21T17:36:55.207Z,14.15
2023-01-21T17:39:50.573Z,11.20
2023-01-21T17:42:23.473Z,11.98
2023-01-21T17:44:57.937Z,14.18
2023-01-21T17:47:34.157Z,13.27
2023-01-21T17:50:21.632Z,12.48
2023-01-21T17:52:55.117Z,15.07
2023-01-21T17:55:29.717Z,11.93
2023-01-21T17:58:00.225Z,12.05
2023-01-21T18:00:37.911Z,14.07
2023-01-21T18:03:05.623Z,13.63
2023-01-21T18:05:33.469Z,15.23
2023-01-21T18:08:02.090Z,12.65
2023-01-21T18:10:30.774Z,14.25
2023-01-21T18:12:58.421Z,15.13
2023-01-21T18:15:26.557Z,16.02
2023-01-21T18:18:02.117Z,16.02
2023-01-21T18:20:30.221Z,14.73
2023-01-21T18:22:58.540Z,14.73
2023-01-21T18:25:27.391Z,13.10
2023-01-21T18:27:55.621Z,14.35
2023-01-21T18:30:28.462Z,12.63
2023-01-21T18:32:57.011Z,17.02
2023-01-21T18:35:29.429Z,13.40
2023-01-21T18:37:57.127Z,12.90
2023-01-21T18:40:24.988Z,13.98
2023-01-21T18:42:55.435Z,13.75
2023-01-21T18:45:27.459Z,14.10
2023-01-21T18:47:57.073Z,16.20
2023-01-21T18:50:27.999Z,15.48
2023-01-21T18:52:55.927Z,17.75
2023-01-21T18:55:27.882Z,14.20
2023-01-21T18:57:56.748Z,15.50
2023-01-21T19:00:30.306Z,15.98
2023-01-21T19:03:01.775Z,13.68
2023-01-21T19:05:38.347Z,18.38
2023-01-21T19:08:12.405Z,16.42
2023-01-21T19:10:40.058Z,15.60
2023-01-21T19:13:09.569Z,16.00
2023-01-21T19:15:37.567Z,16.10
2023-01-21T19:18:12.206Z,14.98
2023-01-21T19:20:42.797Z,14.57
2023-01-21T19:23:15.627Z,15.95
2023-01-21T19:25:52.639Z,16.00
2023-01-21T19:28:20.738Z,14.93
2023-01-21T19:30:49.805Z,23.70
2023-01-21T19:33:17.095Z,15.32
2023-01-21T19:35:45.655Z,13.45
2023-01-21T19:38:21.114Z,16.70
2023-01-21T19:40:48.832Z,15.15
2023-01-21T19:43:17.915Z,14.88
2023-01-21T19:45:46.146Z,16.30
2023-01-21T19:48:16.180Z,13.73
2023-01-21T19:50:44.027Z,18.15
2023-01-21T19:53:15.238Z,14.93
2023-01-21T19:55:44.496Z,16.35
2023-01-21T19:58:19.536Z,17.30
2023-01-21T20:00:49.755Z,16.00
2023-01-21T20:03:19.006Z,16.70
2023-01-21T20:05:49.780Z,16.35
2023-01-21T20:08:23.954Z,16.70
2023-01-21T20:10:51.872Z,16.33
2023-01-21T20:13:19.483Z,17.55
2023-01-21T20:15:49.664Z,19.45
2023-01-21T20:18:21.991Z,17.35
2023-01-21T20:20:52.051Z,17.90
2023-01-21T20:23:21.073Z,17.30
2023-01-21T20:25:51.375Z,17.88
2023-01-21T20:28:22.029Z,15.57
2023-01-21T20:30:51.531Z,19.83
2023-01-21T20:33:21.101Z,14.98
2023-01-21T20:35:55.578Z,17.73
2023-01-21T20:38:30.157Z,16.60
2023-01-21T20:40:59.120Z,18.73
2023-01-21T20:43:27.633Z,16.77
2023-01-21T20:45:59.987Z,17.88
2023-01-21T20:48:32.803Z,19.15
2023-01-21T20:51:00.847Z,18.20
2023-01-21T20:53:30.645Z,17.00
2023-01-21T20:56:00.714Z,18.13
2023-01-21T20:58:28.099Z,15.63
2023-01-21T21:00:55.795Z,17.38
2023-01-21T21:03:23.206Z,17.92
2023-01-21T21:05:50.805Z,17.10
2023-01-21T21:08:21.693Z,18.92
2023-01-21T21:10:50.842Z,17.70
2023-01-21T21:13:18.379Z,18.77
2023-01-21T21:15:53.576Z,19.73
2023-01-21T21:18:20.845Z,18.35
2023-01-21T21:20:48.400Z,19.55
2023-01-21T21:23:16.334Z,20.60
2023-01-21T21:25:45.437Z,18.67
2023-01-21T21:28:14.472Z,17.10
2023-01-21T21:30:42.613Z,21.60
2023-01-21T21:33:18.068Z,18.02
2023-01-21T21:35:46.666Z,17.33
2023-01-21T21:38:21.745Z,19.95
2023-01-21T21:40:52.934Z,19.52
2023-01-21T21:43:35.345Z,21.60
2023-01-21T21:46:30.987Z,17.45
2023-01-21T21:48:58.334Z,18.67
2023-01-21T21:51:26.066Z,21.42
2023-01-21T21:53:53.527Z,23.00
2023-01-21T21:56:23.176Z,19.95
2023-01-21T21:58:51.244Z,19.60
2023-01-21T22:01:24.298Z,20.02
2023-01-21T22:03:52.352Z,19.70
2023-01-21T22:06:21.687Z,21.65
2023-01-21T22:08:49.252Z,20.88
2023-01-21T22:11:19.101Z,19.50
2023-01-21T22:13:50.160Z,19.50
2023-01-21T22:16:24.231Z,20.52
2023-01-21T22:18:53.118Z,20.98
2023-01-21T22:21:23.250Z,18.40
2023-01-21T22:23:51.426Z,18.48
2023-01-21T22:26:22.275Z,19.65
2023-01-21T22:28:53.156Z,19.67
2023-01-21T22:31:27.162Z,20.27
2023-01-21T22:33:55.351Z,20.73
2023-01-21T22:36:24.881Z,18.15
2023-01-21T22:38:52.573Z,19.15
2023-01-21T22:41:22.354Z,20.27
2023-01-21T22:43:50.430Z,20.25
2023-01-21T22:46:23.811Z,21.45
2023-01-21T22:48:53.608Z,19.45
2023-01-21T22:51:23.017Z,18.92
2023-01-21T22:53:51.810Z,18.02
2023-01-21T22:56:25.394Z,20.25
2023-01-21T22:58:59.322Z,21.30
2023-01-21T23:01:34.073Z,20.30
2023-01-21T23:04:02.859Z,20.35
2023-01-21T23:06:30.435Z,20.33
2023-01-21T23:09:02.185Z,20.88
2023-01-21T23:11:29.866Z,19.08
2023-01-21T23:13:57.341Z,20.33
2023-01-21T23:16:25.522Z,22.67
2023-01-21T23:18:52.988Z,20.80
2023-01-21T23:21:22.190Z,19.08
2023-01-21T23:23:50.339Z,20.15
2023-01-21T23:26:19.258Z,22.60
2023-01-21T23:28:47.347Z,21.17
2023-01-21T23:31:17.345Z,20.65
2023-01-21T23:33:50.985Z,19.33
2023-01-21T23:36:19.696Z,19.30
2023-01-21T23:38:47.788Z,21.90
2023-01-21T23:41:17.150Z,19.55
2023-01-21T23:43:44.481Z,20.15
2023-01-21T23:46:16.341Z,20.70
2023-01-21T23:48:43.826Z,21.02
2023-01-21T23:51:13.981Z,21.88
2023-01-21T23:53:41.414Z,21.15
2023-01-21T23:56:24.421Z,21.15
2023-01-21T23:58:52.321Z,20.55
